createdAt,value
2024-03-07T00:00:22.902Z,100507.59
2024-03-07T00:02:51.826Z,100498.84
2024-03-07T00:05:25.537Z,100497.22
2024-03-07T00:07:53.292Z,100499.72
2024-03-07T00:10:22.566Z,100502.19
2024-03-07T00:12:50.518Z,100503.72
2024-03-07T00:15:18.836Z,100501.22
2024-03-07T00:17:46.830Z,100505.47
2024-03-07T00:20:17.148Z,100504.66
2024-03-07T00:22:46.675Z,100504.59
2024-03-07T00:25:20.302Z,100507.78
2024-03-07T00:27:47.939Z,100502.75
2024-03-07T00:30:19.414Z,100501.63
2024-03-07T00:32:48.310Z,100507.19
2024-03-07T00:35:16.296Z,100499.41
2024-03-07T00:37:44.009Z,100495.69
2024-03-07T00:40:14.156Z,100501.84
2024-03-07T00:42:41.772Z,100497.63
2024-03-07T00:45:10.362Z,100495.72
2024-03-07T00:47:39.341Z,100499.00
2024-03-07T00:50:10.530Z,100486.28
2024-03-07T00:52:39.167Z,100499.00
2024-03-07T00:55:09.433Z,100493.72
2024-03-07T00:57:39.186Z,100497.00
2024-03-07T01:00:12.830Z,100492.53
2024-03-07T01:02:44.196Z,100496.03
2024-03-07T01:05:14.300Z,100495.00
2024-03-07T01:07:42.335Z,100487.97
2024-03-07T01:10:10.569Z,100492.19
2024-03-07T01:12:39.642Z,100483.56
2024-03-07T01:15:08.107Z,100484.28
2024-03-07T01:17:35.835Z,100478.38
2024-03-07T01:20:03.845Z,100477.56
2024-03-07T01:22:31.431Z,100486.91
2024-03-07T01:24:59.149Z,100484.38
2024-03-07T01:27:26.800Z,100478.31
2024-03-07T01:29:55.881Z,100475.75
2024-03-07T01:32:23.597Z,100480.13
2024-03-07T01:34:51.345Z,100477.56
2024-03-07T01:37:18.962Z,100473.19
2024-03-07T01:39:47.724Z,100476.69
2024-03-07T01:42:15.668Z,100479.19
2024-03-07T01:44:44.980Z,100473.19
2024-03-07T01:47:15.621Z,100464.56
2024-03-07T01:49:43.344Z,100463.59
2024-03-07T01:52:12.724Z,100454.19
2024-03-07T01:54:40.446Z,100459.31
2024-03-07T01:57:09.146Z,100465.34
2024-03-07T01:59:37.372Z,100463.69
2024-03-07T02:02:05.455Z,100462.09
2024-03-07T02:04:34.466Z,100451.78
2024-03-07T02:07:02.134Z,100451.66
2024-03-07T02:09:29.762Z,100443.97
2024-03-07T02:11:58.194Z,100447.41
2024-03-07T02:14:26.209Z,100448.28
2024-03-07T02:16:53.867Z,100453.47
2024-03-07T02:19:21.839Z,100455.22
2024-03-07T02:21:50.790Z,100449.22
2024-03-07T02:24:18.446Z,100442.38
2024-03-07T02:26:46.099Z,100441.25
2024-03-07T02:29:13.797Z,100442.19
2024-03-07T02:31:42.672Z,100442.19
2024-03-07T02:34:10.437Z,100441.31
2024-03-07T02:36:38.140Z,100443.09
2024-03-07T02:39:07.413Z,100439.81
2024-03-07T02:41:36.065Z,100441.44
2024-03-07T02:44:04.774Z,100437.09
2024-03-07T02:46:33.328Z,100433.41
2024-03-07T02:49:01.242Z,100423.94
2024-03-07T02:51:28.945Z,100429.13
2024-03-07T02:53:56.638Z,100432.72
2024-03-07T02:56:26.045Z,100428.66
2024-03-07T02:58:53.935Z,100427.78
2024-03-07T03:01:21.693Z,100428.41
2024-03-07T03:03:49.584Z,100427.44
2024-03-07T03:06:17.268Z,100426.56
2024-03-07T03:08:44.916Z,100417.78
2024-03-07T03:11:15.137Z,100425.44
2024-03-07T03:13:44.984Z,100427.88
2024-03-07T03:16:12.624Z,100433.91
2024-03-07T03:18:40.332Z,100427.00
2024-03-07T03:21:08.769Z,100432.78
2024-03-07T03:23:36.751Z,100431.06
2024-03-07T03:26:04.803Z,100426.56
2024-03-07T03:28:32.826Z,100422.28
2024-03-07T03:31:01.809Z,100415.09
2024-03-07T03:33:29.531Z,100424.19
2024-03-07T03:35:57.483Z,100426.41
2024-03-07T03:38:25.251Z,100420.97
2024-03-07T03:40:53.068Z,100420.53
2024-03-07T03:43:20.843Z,100415.78
2024-03-07T03:45:48.871Z,100416.88
2024-03-07T03:48:18.276Z,100408.81
2024-03-07T03:50:47.579Z,100403.13
2024-03-07T03:53:15.453Z,100406.94
2024-03-07T03:55:43.121Z,100406.50
2024-03-07T03:58:11.609Z,100401.88
2024-03-07T04:00:40.320Z,100407.59
2024-03-07T04:03:08.266Z,100402.09
2024-03-07T04:05:37.375Z,100403.31
2024-03-07T04:08:06.521Z,100396.66
2024-03-07T04:10:34.143Z,100406.47
2024-03-07T04:13:01.898Z,100407.88
2024-03-07T04:15:34.127Z,100404.19
2024-03-07T04:18:03.673Z,100404.66
2024-03-07T04:20:31.371Z,100401.56
2024-03-07T04:23:00.345Z,100403.84
2024-03-07T04:25:29.455Z,100396.84
2024-03-07T04:27:57.050Z,100398.91
2024-03-07T04:30:24.625Z,100388.38
2024-03-07T04:32:53.230Z,100397.50
2024-03-07T04:35:21.082Z,100399.59
2024-03-07T04:37:48.770Z,100403.63
2024-03-07T04:40:19.109Z,100392.38
2024-03-07T04:42:49.666Z,100387.78
2024-03-07T04:45:18.256Z,100400.44
2024-03-07T04:47:47.220Z,100405.38
2024-03-07T04:50:18.461Z,100394.78
2024-03-07T04:52:47.410Z,100407.25
2024-03-07T04:55:15.813Z,100393.56
2024-03-07T04:57:44.942Z,100402.66
2024-03-07T05:00:16.903Z,100397.41
2024-03-07T05:02:47.552Z,100408.38
2024-03-07T05:05:15.936Z,100403.97
2024-03-07T05:07:43.741Z,100405.44
2024-03-07T05:10:11.927Z,100407.72
2024-03-07T05:12:39.550Z,100409.19
2024-03-07T05:15:11.022Z,100405.06
2024-03-07T05:17:40.173Z,100410.84
2024-03-07T05:20:11.221Z,100409.97
2024-03-07T05:22:41.670Z,100405.00
2024-03-07T05:25:10.290Z,100407.06
2024-03-07T05:27:38.140Z,100398.28
2024-03-07T05:30:11.187Z,100403.00
2024-03-07T05:32:39.843Z,100404.38
2024-03-07T05:35:08.754Z,100404.38
2024-03-07T05:37:36.646Z,100398.13
2024-03-07T05:40:05.101Z,100397.91
2024-03-07T05:42:33.381Z,100403.59
2024-03-07T05:45:01.359Z,100404.47
2024-03-07T05:47:30.640Z,100403.41
2024-03-07T05:49:58.305Z,100401.44
2024-03-07T05:52:26.087Z,100407.41
2024-03-07T05:54:53.684Z,100399.69
2024-03-07T05:57:21.266Z,100397.94
2024-03-07T05:59:49.044Z,100406.34
2024-03-07T06:02:17.303Z,100402.13
2024-03-07T06:04:46.910Z,100401.44
2024-03-07T06:07:14.540Z,100408.97
2024-03-07T06:09:42.172Z,100400.78
2024-03-07T06:12:16.673Z,100400.06
2024-03-07T06:14:51.409Z,100399.06
2024-03-07T06:17:22.428Z,100397.53
2024-03-07T06:19:51.652Z,100399.75
2024-03-07T06:22:19.259Z,100398.47
2024-03-07T06:24:47.246Z,100392.78
2024-03-07T06:27:28.071Z,100400.63
2024-03-07T06:29:56.206Z,100401.69
2024-03-07T06:32:25.067Z,100395.72
2024-03-07T06:34:54.568Z,100412.41
2024-03-07T06:37:22.736Z,100399.34
2024-03-07T06:39:50.395Z,100406.66
2024-03-07T06:42:18.878Z,100406.06
2024-03-07T06:44:47.181Z,100407.28
2024-03-07T06:47:14.931Z,100408.44
2024-03-07T06:49:42.596Z,100407.66
2024-03-07T06:52:11.619Z,100408.25
2024-03-07T06:54:39.408Z,100412.53
2024-03-07T06:57:07.006Z,100406.44
2024-03-07T06:59:34.649Z,100409.91
2024-03-07T07:02:02.584Z,100413.22
2024-03-07T07:04:42.601Z,100412.16
2024-03-07T07:07:13.898Z,100421.09
2024-03-07T07:09:42.963Z,100417.19
2024-03-07T07:12:10.798Z,100416.63
2024-03-07T07:14:39.138Z,100417.38
2024-03-07T07:17:10.224Z,100416.31
2024-03-07T07:19:38.796Z,100410.91
2024-03-07T07:22:07.282Z,100411.28
2024-03-07T07:24:36.418Z,100408.66
2024-03-07T07:27:04.493Z,100406.91
2024-03-07T07:29:32.175Z,100402.03
2024-03-07T07:31:59.891Z,100404.56
2024-03-07T07:34:27.482Z,100400.28
2024-03-07T07:36:55.307Z,100393.59
2024-03-07T07:39:22.979Z,100399.06
2024-03-07T07:41:51.924Z,100405.88
2024-03-07T07:44:20.443Z,100392.22
2024-03-07T07:46:48.036Z,100401.28
2024-03-07T07:49:17.018Z,100393.03
2024-03-07T07:51:44.580Z,100399.25
2024-03-07T07:54:12.158Z,100385.84
2024-03-07T07:56:39.722Z,100388.91
2024-03-07T07:59:10.406Z,100392.78
2024-03-07T08:01:38.095Z,100387.34
2024-03-07T08:04:06.101Z,100392.09
2024-03-07T08:06:33.761Z,100395.25
2024-03-07T08:09:01.568Z,100391.06
2024-03-07T08:11:29.298Z,100387.13
2024-03-07T08:13:56.956Z,100393.59
2024-03-07T08:16:25.943Z,100384.22
2024-03-07T08:18:53.596Z,100392.84
2024-03-07T08:21:21.256Z,100392.41
2024-03-07T08:23:48.909Z,100390.69
2024-03-07T08:26:17.244Z,100386.81
2024-03-07T08:28:44.968Z,100385.88
2024-03-07T08:31:13.614Z,100381.47
2024-03-07T08:33:42.701Z,100378.09
2024-03-07T08:36:11.162Z,100375.63
2024-03-07T08:38:39.427Z,100371.38
2024-03-07T08:41:07.111Z,100373.84
2024-03-07T08:43:35.068Z,100367.28
2024-03-07T08:46:02.687Z,100363.75
2024-03-07T08:48:30.742Z,100365.81
2024-03-07T08:50:59.841Z,100367.06
2024-03-07T08:53:27.517Z,100362.47
2024-03-07T08:55:55.133Z,100358.22
2024-03-07T08:58:22.712Z,100361.00
2024-03-07T09:00:53.336Z,100359.69
2024-03-07T09:03:23.008Z,100357.66
2024-03-07T09:05:51.748Z,100360.56
2024-03-07T09:08:20.753Z,100346.97
2024-03-07T09:10:49.168Z,100349.69
2024-03-07T09:13:16.773Z,100351.94
2024-03-07T09:15:44.489Z,100339.38
2024-03-07T09:18:13.204Z,100339.66
2024-03-07T09:20:41.123Z,100331.88
2024-03-07T09:23:08.858Z,100331.44
2024-03-07T09:25:37.877Z,100323.06
2024-03-07T09:28:07.114Z,100329.81
2024-03-07T09:30:35.978Z,100325.13
2024-03-07T09:33:03.768Z,100328.69
2024-03-07T09:35:31.742Z,100325.44
2024-03-07T09:37:59.402Z,100323.50
2024-03-07T09:40:27.924Z,100322.13
2024-03-07T09:42:59.049Z,100314.53
2024-03-07T09:45:31.477Z,100320.03
2024-03-07T09:47:59.954Z,100326.00
2024-03-07T09:50:31.327Z,100322.84
2024-03-07T09:53:01.772Z,100319.78
2024-03-07T09:55:29.669Z,100312.84
2024-03-07T09:58:00.897Z,100313.72
2024-03-07T10:00:31.342Z,100313.97
2024-03-07T10:03:01.429Z,100331.03
2024-03-07T10:05:30.858Z,100328.38
2024-03-07T10:07:58.895Z,100323.09
2024-03-07T10:10:27.107Z,100325.34
2024-03-07T10:12:55.321Z,100317.75
2024-03-07T10:15:30.038Z,100323.03
2024-03-07T10:17:57.929Z,100322.16
2024-03-07T10:20:26.026Z,100325.13
2024-03-07T10:22:53.819Z,100314.41
2024-03-07T10:25:25.331Z,100318.13
2024-03-07T10:27:53.665Z,100322.16
2024-03-07T10:30:23.110Z,100327.94
2024-03-07T10:32:55.969Z,100328.56
2024-03-07T10:35:25.359Z,100324.34
2024-03-07T10:37:55.017Z,100316.94
2024-03-07T10:40:23.554Z,100318.13
2024-03-07T10:42:54.155Z,100307.59
2024-03-07T10:45:23.527Z,100304.59
2024-03-07T10:47:56.830Z,100306.41
2024-03-07T10:50:40.299Z,100305.19
2024-03-07T10:53:12.516Z,100303.22
2024-03-07T10:55:45.890Z,100304.22
2024-03-07T10:58:18.738Z,100298.44
2024-03-07T11:00:47.667Z,100288.72
2024-03-07T11:03:20.353Z,100301.53
2024-03-07T11:05:48.857Z,100284.72
2024-03-07T11:08:17.598Z,100286.72
2024-03-07T11:10:48.259Z,100286.06
2024-03-07T11:13:17.801Z,100285.91
2024-03-07T11:15:48.952Z,100283.78
2024-03-07T11:18:18.687Z,100285.53
2024-03-07T11:20:48.280Z,100280.56
2024-03-07T11:23:29.807Z,100276.28
2024-03-07T11:26:08.398Z,100279.88
2024-03-07T11:28:38.360Z,100269.47
2024-03-07T11:31:13.792Z,100266.56
2024-03-07T11:33:44.735Z,100264.41
2024-03-07T11:36:13.970Z,100261.25
2024-03-07T11:38:47.191Z,100256.97
2024-03-07T11:41:15.164Z,100237.31
2024-03-07T11:43:44.416Z,100240.38
2024-03-07T11:46:17.601Z,100250.53
2024-03-07T11:48:46.854Z,100247.94
2024-03-07T11:51:16.428Z,100241.00
2024-03-07T11:53:49.021Z,100229.66
2024-03-07T11:56:18.648Z,100231.16
2024-03-07T11:58:53.300Z,100235.16
2024-03-07T12:01:26.204Z,100227.75
2024-03-07T12:03:57.631Z,100220.72
2024-03-07T12:06:27.345Z,100220.41
2024-03-07T12:08:55.099Z,100213.16
2024-03-07T12:11:23.127Z,100208.13
2024-03-07T12:13:52.271Z,100204.88
2024-03-07T12:16:19.998Z,100207.00
2024-03-07T12:18:49.576Z,100212.56
2024-03-07T12:21:19.828Z,100204.44
2024-03-07T12:23:47.662Z,100209.63
2024-03-07T12:26:26.079Z,100205.13
2024-03-07T12:28:54.278Z,100206.06
2024-03-07T12:31:25.684Z,100202.66
2024-03-07T12:33:54.022Z,100204.53
2024-03-07T12:36:28.047Z,100205.50
2024-03-07T12:38:56.740Z,100195.44
2024-03-07T12:41:24.588Z,100201.00
2024-03-07T12:43:52.812Z,100188.88
2024-03-07T12:46:20.628Z,100191.09
2024-03-07T12:48:50.311Z,100188.97
2024-03-07T12:51:20.453Z,100194.34
2024-03-07T12:53:50.520Z,100193.66
2024-03-07T12:56:19.000Z,100192.09
2024-03-07T12:58:47.875Z,100192.75
2024-03-07T13:01:16.432Z,100185.34
2024-03-07T13:03:46.674Z,100189.97
2024-03-07T13:06:14.602Z,100188.53
2024-03-07T13:08:42.555Z,100187.41
2024-03-07T13:11:13.171Z,100184.47
2024-03-07T13:13:41.437Z,100195.47
2024-03-07T13:16:10.256Z,100188.19
2024-03-07T13:18:38.789Z,100182.84
2024-03-07T13:21:08.263Z,100187.66
2024-03-07T13:23:37.342Z,100192.81
2024-03-07T13:26:09.788Z,100186.09
2024-03-07T13:28:38.988Z,100179.78
2024-03-07T13:31:06.711Z,100177.50
2024-03-07T13:33:36.355Z,100177.66
2024-03-07T13:36:05.617Z,100180.53
2024-03-07T13:38:33.234Z,100174.13
2024-03-07T13:41:04.679Z,100184.09
2024-03-07T13:43:34.832Z,100171.91
2024-03-07T13:46:04.991Z,100171.94
2024-03-07T13:48:34.243Z,100168.38
2024-03-07T13:51:08.889Z,100165.47
2024-03-07T13:53:47.909Z,100160.75
2024-03-07T13:56:36.541Z,100153.81
2024-03-07T13:59:54.114Z,100152.38
2024-03-07T14:02:50.279Z,100152.03
2024-03-07T14:05:41.206Z,100158.75
2024-03-07T14:08:28.143Z,100154.19
2024-03-07T14:11:28.540Z,100153.59
2024-03-07T14:14:15.278Z,100143.63
2024-03-07T14:17:07.483Z,100142.38
2024-03-07T14:20:16.599Z,100144.78
2024-03-07T14:23:06.742Z,100132.84
2024-03-07T14:25:53.037Z,100141.88
2024-03-07T14:28:47.577Z,100134.63
2024-03-07T14:31:15.397Z,100134.78
2024-03-07T14:33:55.883Z,100122.09
2024-03-07T14:36:37.814Z,100137.81
2024-03-07T14:39:06.608Z,100126.22
2024-03-07T14:41:49.816Z,100125.22
2024-03-07T14:44:18.538Z,100123.25
2024-03-07T14:46:47.994Z,100121.22
2024-03-07T14:49:20.382Z,100125.69
2024-03-07T14:51:58.635Z,100123.97
2024-03-07T14:54:28.650Z,100116.03
2024-03-07T14:56:56.828Z,100109.09
2024-03-07T14:59:24.692Z,100100.53
2024-03-07T15:01:53.650Z,100105.94
2024-03-07T15:04:22.326Z,100105.75
2024-03-07T15:06:53.409Z,100100.63
2024-03-07T15:09:21.613Z,100098.97
2024-03-07T15:11:50.464Z,100096.25
2024-03-07T15:14:23.022Z,100094.47
2024-03-07T15:16:58.496Z,100091.09
2024-03-07T15:19:26.095Z,100085.69
2024-03-07T15:21:55.118Z,100088.22
2024-03-07T15:24:22.749Z,100084.91
2024-03-07T15:26:51.563Z,100087.47
2024-03-07T15:29:22.995Z,100083.84
2024-03-07T15:31:51.671Z,100084.91
2024-03-07T15:34:19.249Z,100090.97
2024-03-07T15:36:47.728Z,100088.38
2024-03-07T15:39:27.440Z,100085.00
2024-03-07T15:41:55.790Z,100089.22
2024-03-07T15:44:23.554Z,100087.56
2024-03-07T15:46:51.246Z,100079.84
2024-03-07T15:49:19.269Z,100083.25
2024-03-07T15:51:47.608Z,100076.38
2024-03-07T15:54:19.644Z,100072.69
2024-03-07T15:56:49.805Z,100072.50
2024-03-07T15:59:17.567Z,100062.06
2024-03-07T16:01:45.466Z,100065.31
2024-03-07T16:04:13.525Z,100057.63
2024-03-07T16:06:44.854Z,100060.16
2024-03-07T16:09:14.596Z,100064.44
2024-03-07T16:11:43.643Z,100063.50
2024-03-07T16:14:12.729Z,100063.50
2024-03-07T16:16:42.456Z,100068.63
2024-03-07T16:19:11.498Z,100064.31
2024-03-07T16:21:40.082Z,100062.53
2024-03-07T16:24:09.604Z,100059.81
2024-03-07T16:26:37.576Z,100060.78
2024-03-07T16:29:06.987Z,100056.31
2024-03-07T16:31:34.609Z,100055.53
2024-03-07T16:34:02.249Z,100054.66
2024-03-07T16:36:29.882Z,100049.66
2024-03-07T16:38:57.842Z,100054.03
2024-03-07T16:41:25.725Z,100053.31
2024-03-07T16:43:53.359Z,100050.78
2024-03-07T16:46:23.060Z,100049.88
2024-03-07T16:48:51.363Z,100052.63
2024-03-07T16:51:19.021Z,100055.16
2024-03-07T16:53:46.694Z,100054.84
2024-03-07T16:56:15.742Z,100054.03
2024-03-07T16:58:43.409Z,100053.09
2024-03-07T17:01:11.164Z,100052.94
2024-03-07T17:03:40.150Z,100047.72
2024-03-07T17:06:10.925Z,100044.09
2024-03-07T17:08:39.180Z,100045.63
2024-03-07T17:11:07.649Z,100044.53
2024-03-07T17:13:37.908Z,100042.56
2024-03-07T17:16:06.340Z,100038.03
2024-03-07T17:18:35.143Z,100044.41
2024-03-07T17:21:07.355Z,100042.47
2024-03-07T17:23:35.026Z,100034.50
2024-03-07T17:26:02.737Z,100030.00
2024-03-07T17:28:30.893Z,100038.09
2024-03-07T17:30:58.508Z,100036.25
2024-03-07T17:33:27.061Z,100030.91
2024-03-07T17:35:55.161Z,100036.13
2024-03-07T17:38:24.176Z,100029.16
2024-03-07T17:40:51.746Z,100034.16
2024-03-07T17:43:19.787Z,100028.91
2024-03-07T17:45:47.538Z,100030.44
2024-03-07T17:48:15.227Z,100039.72
2024-03-07T17:50:44.762Z,100035.53
2024-03-07T17:53:14.991Z,100027.63
2024-03-07T17:55:44.800Z,100026.63
2024-03-07T17:58:14.284Z,100026.75
2024-03-07T18:00:43.802Z,100035.34
2024-03-07T18:03:12.361Z,100037.22
2024-03-07T18:05:44.186Z,100032.88
2024-03-07T18:08:33.560Z,100038.00
2024-03-07T18:11:07.509Z,100033.50
2024-03-07T18:13:35.422Z,100033.50
2024-03-07T18:16:03.040Z,100036.06
2024-03-07T18:18:33.291Z,100031.06
2024-03-07T18:21:02.294Z,100032.53
2024-03-07T18:23:30.313Z,100030.00
2024-03-07T18:26:00.875Z,100021.28
2024-03-07T18:28:30.024Z,100031.44
2024-03-07T18:31:01.094Z,100029.66
2024-03-07T18:33:32.342Z,100029.56
2024-03-07T18:36:01.543Z,100023.56
2024-03-07T18:38:29.338Z,100026.88
2024-03-07T18:40:57.114Z,100023.44
2024-03-07T18:43:24.742Z,100018.44
2024-03-07T18:45:53.789Z,100019.19
2024-03-07T18:48:21.459Z,100022.72
2024-03-07T18:50:50.194Z,100015.13
2024-03-07T18:53:21.039Z,100011.63
2024-03-07T18:55:51.002Z,100014.41
2024-03-07T18:58:23.442Z,100012.69
2024-03-07T19:00:51.328Z,100010.84
2024-03-07T19:03:22.398Z,100009.16
2024-03-07T19:05:53.096Z,100007.59
2024-03-07T19:08:25.058Z,100005.00
2024-03-07T19:10:54.412Z,100012.69
2024-03-07T19:13:22.407Z,100010.84
2024-03-07T19:15:53.217Z,100001.38
2024-03-07T19:18:23.478Z,99996.47
2024-03-07T19:20:55.582Z,99997.19
2024-03-07T19:23:25.501Z,99998.81
2024-03-07T19:25:53.640Z,99995.31
2024-03-07T19:28:21.443Z,99991.84
2024-03-07T19:30:51.787Z,99989.97
2024-03-07T19:33:21.566Z,99989.75
2024-03-07T19:35:53.317Z,99989.53
2024-03-07T19:38:21.283Z,99998.78
2024-03-07T19:40:50.992Z,99999.41
2024-03-07T19:43:20.832Z,99994.31
2024-03-07T19:45:48.609Z,99994.44
2024-03-07T19:48:16.390Z,99993.44
2024-03-07T19:50:46.791Z,99990.81
2024-03-07T19:53:16.679Z,99995.13
2024-03-07T19:55:46.058Z,99989.06
2024-03-07T19:58:14.021Z,99986.50
2024-03-07T20:00:45.596Z,99977.06
2024-03-07T20:03:15.704Z,99972.72
2024-03-07T20:05:43.845Z,99965.78
2024-03-07T20:08:15.646Z,99968.34
2024-03-07T20:10:48.993Z,99968.16
2024-03-07T20:13:17.896Z,99965.50
2024-03-07T20:15:46.966Z,99964.50
2024-03-07T20:18:15.223Z,99966.19
2024-03-07T20:20:44.994Z,99964.50
2024-03-07T20:23:14.617Z,99968.97
2024-03-07T20:25:42.794Z,99964.28
2024-03-07T20:28:13.642Z,99962.53
2024-03-07T20:30:43.200Z,99963.03
2024-03-07T20:33:11.322Z,99956.69
2024-03-07T20:35:39.382Z,99964.31
2024-03-07T20:38:10.751Z,99963.09
2024-03-07T20:40:38.773Z,99961.22
2024-03-07T20:43:06.499Z,99962.63
2024-03-07T20:45:36.478Z,99952.25
2024-03-07T20:48:06.532Z,99956.25
2024-03-07T20:50:40.472Z,99956.88
2024-03-07T20:53:10.661Z,99948.16
2024-03-07T20:55:41.024Z,99952.25
2024-03-07T20:58:10.487Z,99950.50
2024-03-07T21:00:46.162Z,99947.91
2024-03-07T21:03:15.184Z,99948.63
2024-03-07T21:05:44.506Z,99941.66
2024-03-07T21:08:12.143Z,99944.28
2024-03-07T21:10:40.335Z,99940.91
2024-03-07T21:13:08.420Z,99940.91
2024-03-07T21:15:36.247Z,99940.66
2024-03-07T21:18:09.251Z,99940.53
2024-03-07T21:20:37.821Z,99933.44
2024-03-07T21:23:08.095Z,99936.63
2024-03-07T21:25:36.881Z,99938.16
2024-03-07T21:28:06.074Z,99941.38
2024-03-07T21:30:33.836Z,99935.28
2024-03-07T21:33:01.711Z,99933.53
2024-03-07T21:35:31.921Z,99936.69
2024-03-07T21:38:00.316Z,99939.41
2024-03-07T21:40:28.178Z,99929.84
2024-03-07T21:42:56.170Z,99932.28
2024-03-07T21:45:23.786Z,99930.53
2024-03-07T21:47:51.466Z,99927.19
2024-03-07T21:50:20.325Z,99924.53
2024-03-07T21:52:50.121Z,99923.56
2024-03-07T21:55:20.915Z,99925.16
2024-03-07T21:57:49.360Z,99924.44
2024-03-07T22:00:19.000Z,99920.03
2024-03-07T22:02:57.726Z,99920.78
2024-03-07T22:05:29.697Z,99914.66
2024-03-07T22:07:59.750Z,99914.50
2024-03-07T22:10:28.274Z,99905.91
2024-03-07T22:12:56.430Z,99907.59
2024-03-07T22:15:24.881Z,99903.91
2024-03-07T22:17:54.808Z,99901.28
2024-03-07T22:20:24.267Z,99909.63
2024-03-07T22:22:53.853Z,99896.88
2024-03-07T22:25:23.999Z,99899.22
2024-03-07T22:27:53.085Z,99900.09
2024-03-07T22:30:24.221Z,99893.16
2024-03-07T22:32:53.758Z,99899.03
2024-03-07T22:35:22.434Z,99887.19
2024-03-07T22:37:52.143Z,99890.50
2024-03-07T22:40:26.937Z,99884.41
2024-03-07T22:42:54.976Z,99879.31
2024-03-07T22:45:23.913Z,99886.06
2024-03-07T22:47:53.609Z,99879.25
2024-03-07T22:50:28.807Z,99880.06
2024-03-07T22:52:59.744Z,99877.31
2024-03-07T22:55:29.058Z,99875.56
2024-03-07T22:57:56.870Z,99863.47
2024-03-07T23:00:28.030Z,99860.88
2024-03-07T23:02:59.550Z,99857.25
2024-03-07T23:05:28.542Z,99863.94
2024-03-07T23:07:56.999Z,99852.06
2024-03-07T23:10:24.682Z,99849.38
2024-03-07T23:12:54.217Z,99855.22
2024-03-07T23:15:25.446Z,99850.09
2024-03-07T23:17:55.399Z,99838.91
2024-03-07T23:20:25.274Z,99848.97
2024-03-07T23:22:55.751Z,99844.63
2024-03-07T23:25:23.954Z,99842.84
2024-03-07T23:27:54.349Z,99836.75
2024-03-07T23:30:24.322Z,99836.75
2024-03-07T23:32:53.421Z,99833.19
2024-03-07T23:35:21.730Z,99835.69
2024-03-07T23:37:51.568Z,99831.09
2024-03-07T23:40:19.855Z,99830.81
2024-03-07T23:42:49.881Z,99819.03
2024-03-07T23:45:19.531Z,99820.50
2024-03-07T23:47:48.348Z,99818.63
2024-03-07T23:50:16.185Z,99827.19
2024-03-07T23:52:45.287Z,99822.91
2024-03-07T23:55:14.341Z,99824.44
2024-03-07T23:57:43.324Z,99821.16
